sensor_id;sensor_type;location;lat;lon;timestamp;P1;durP1;ratioP1;P2;durP2;ratioP2
40659;SDS011;26753;45.544;9.232;2022-12-18T00:02:01;21.40;;;15.68;;
40659;SDS011;26753;45.544;9.232;2022-12-18T00:04:31;27.00;;;17.17;;
40659;SDS011;26753;45.544;9.232;2022-12-18T00:07:31;26.38;;;16.67;;
40659;SDS011;26753;45.544;9.232;2022-12-18T00:10:16;25.63;;;17.10;;
40659;SDS011;26753;45.544;9.232;2022-12-18T00:22:59;25.70;;;16.65;;
40659;SDS011;26753;45.544;9.232;2022-12-18T00:25:54;24.95;;;16.42;;
40659;SDS011;26753;45.544;9.232;2022-12-18T00:29:24;24.58;;;16.27;;
40659;SDS011;26753;45.544;9.232;2022-12-18T00:32:26;23.95;;;16.15;;
40659;SDS011;26753;45.544;9.232;2022-12-18T00:38:26;22.52;;;15.50;;
40659;SDS011;26753;45.544;9.232;2022-12-18T00:41:16;23.20;;;15.80;;
40659;SDS011;26753;45.544;9.232;2022-12-18T01:04:17;24.73;;;16.83;;
40659;SDS011;26753;45.544;9.232;2022-12-18T01:06:52;26.55;;;17.15;;
40659;SDS011;26753;45.544;9.232;2022-12-18T01:09:19;25.20;;;16.80;;
40659;SDS011;26753;45.544;9.232;2022-12-18T01:11:54;26.92;;;17.55;;
40659;SDS011;26753;45.544;9.232;2022-12-18T01:14:20;23.92;;;16.92;;
40659;SDS011;26753;45.544;9.232;2022-12-18T01:16:47;23.85;;;16.33;;
40659;SDS011;26753;45.544;9.232;2022-12-18T01:19:16;27.25;;;16.88;;
40659;SDS011;26753;45.544;9.232;2022-12-18T01:22:04;23.42;;;15.98;;
40659;SDS011;26753;45.544;9.232;2022-12-18T01:24:36;24.50;;;16.33;;
40659;SDS011;26753;45.544;9.232;2022-12-18T01:27:03;23.13;;;16.48;;
40659;SDS011;26753;45.544;9.232;2022-12-18T01:29:29;22.48;;;15.45;;
40659;SDS011;26753;45.544;9.232;2022-12-18T01:32:17;23.52;;;16.02;;
40659;SDS011;26753;45.544;9.232;2022-12-18T01:34:44;23.10;;;15.55;;
40659;SDS011;26753;45.544;9.232;2022-12-18T01:37:13;23.77;;;16.02;;
40659;SDS011;26753;45.544;9.232;2022-12-18T01:40:38;22.30;;;15.20;;
40659;SDS011;26753;45.544;9.232;2022-12-18T01:43:18;22.52;;;15.45;;
40659;SDS011;26753;45.544;9.232;2022-12-18T01:53:00;22.65;;;15.27;;
40659;SDS011;26753;45.544;9.232;2022-12-18T01:55:49;22.08;;;15.80;;
40659;SDS011;26753;45.544;9.232;2022-12-18T02:02:53;22.85;;;15.65;;
40659;SDS011;26753;45.544;9.232;2022-12-18T02:10:05;26.23;;;15.60;;
40659;SDS011;26753;45.544;9.232;2022-12-18T02:13:29;22.80;;;15.90;;
40659;SDS011;26753;45.544;9.232;2022-12-18T02:26:19;24.73;;;16.73;;
40659;SDS011;26753;45.544;9.232;2022-12-18T02:29:18;25.98;;;16.75;;
40659;SDS011;26753;45.544;9.232;2022-12-18T02:32:12;25.38;;;16.42;;
40659;SDS011;26753;45.544;9.232;2022-12-18T02:35:02;28.25;;;18.73;;
40659;SDS011;26753;45.544;9.232;2022-12-18T02:38:31;30.90;;;19.58;;
40659;SDS011;26753;45.544;9.232;2022-12-18T02:44:53;25.42;;;16.92;;
40659;SDS011;26753;45.544;9.232;2022-12-18T02:47:47;25.55;;;16.75;;
40659;SDS011;26753;45.544;9.232;2022-12-18T02:50:41;33.83;;;20.98;;
40659;SDS011;26753;45.544;9.232;2022-12-18T03:07:09;36.85;;;20.52;;
40659;SDS011;26753;45.544;9.232;2022-12-18T03:13:33;44.33;;;22.27;;
40659;SDS011;26753;45.544;9.232;2022-12-18T03:16:12;48.17;;;24.15;;
40659;SDS011;26753;45.544;9.232;2022-12-18T03:32:11;71.72;;;28.92;;
40659;SDS011;26753;45.544;9.232;2022-12-18T03:35:00;72.88;;;30.42;;
40659;SDS011;26753;45.544;9.232;2022-12-18T03:51:14;81.28;;;30.35;;
40659;SDS011;26753;45.544;9.232;2022-12-18T04:24:14;78.25;;;29.70;;
40659;SDS011;26753;45.544;9.232;2022-12-18T04:27:03;83.25;;;29.92;;
40659;SDS011;26753;45.544;9.232;2022-12-18T04:33:52;83.10;;;29.73;;
40659;SDS011;26753;45.544;9.232;2022-12-18T04:40:07;75.03;;;28.02;;
40659;SDS011;26753;45.544;9.232;2022-12-18T04:42:48;67.82;;;27.00;;
40659;SDS011;26753;45.544;9.232;2022-12-18T04:48:44;73.70;;;28.02;;
40659;SDS011;26753;45.544;9.232;2022-12-18T05:14:30;75.72;;;28.10;;
40659;SDS011;26753;45.544;9.232;2022-12-18T05:17:42;71.50;;;26.83;;
40659;SDS011;26753;45.544;9.232;2022-12-18T05:24:11;77.18;;;27.85;;
40659;SDS011;26753;45.544;9.232;2022-12-18T05:37:37;74.13;;;27.67;;
40659;SDS011;26753;45.544;9.232;2022-12-18T05:40:05;73.95;;;29.25;;
40659;SDS011;26753;45.544;9.232;2022-12-18T05:43:18;72.38;;;28.17;;
40659;SDS011;26753;45.544;9.232;2022-12-18T05:45:50;69.07;;;27.05;;
40659;SDS011;26753;45.544;9.232;2022-12-18T05:48:30;71.15;;;28.63;;
40659;SDS011;26753;45.544;9.232;2022-12-18T05:58:59;70.82;;;27.95;;
40659;SDS011;26753;45.544;9.232;2022-12-18T06:05:03;65.28;;;26.05;;
40659;SDS011;26753;45.544;9.232;2022-12-18T06:11:10;73.97;;;28.73;;
40659;SDS011;26753;45.544;9.232;2022-12-18T06:27:40;63.53;;;27.48;;
40659;SDS011;26753;45.544;9.232;2022-12-18T06:31:11;63.50;;;27.63;;
40659;SDS011;26753;45.544;9.232;2022-12-18T06:33:37;70.85;;;29.35;;
40659;SDS011;26753;45.544;9.232;2022-12-18T06:36:05;69.22;;;28.70;;
40659;SDS011;26753;45.544;9.232;2022-12-18T06:38:35;75.75;;;32.50;;
40659;SDS011;26753;45.544;9.232;2022-12-18T06:41:08;69.90;;;30.15;;
40659;SDS011;26753;45.544;9.232;2022-12-18T06:43:40;69.32;;;29.02;;
40659;SDS011;26753;45.544;9.232;2022-12-18T06:46:09;73.28;;;29.98;;
40659;SDS011;26753;45.544;9.232;2022-12-18T06:48:36;69.63;;;29.15;;
40659;SDS011;26753;45.544;9.232;2022-12-18T06:51:05;69.57;;;28.75;;
40659;SDS011;26753;45.544;9.232;2022-12-18T06:53:32;67.72;;;27.88;;
40659;SDS011;26753;45.544;9.232;2022-12-18T06:56:05;69.63;;;29.00;;
40659;SDS011;26753;45.544;9.232;2022-12-18T06:58:48;70.40;;;28.52;;
40659;SDS011;26753;45.544;9.232;2022-12-18T07:01:18;71.63;;;29.40;;
40659;SDS011;26753;45.544;9.232;2022-12-18T07:03:44;74.20;;;29.80;;
40659;SDS011;26753;45.544;9.232;2022-12-18T07:06:14;73.45;;;29.23;;
40659;SDS011;26753;45.544;9.232;2022-12-18T07:08:41;77.13;;;29.88;;
40659;SDS011;26753;45.544;9.232;2022-12-18T07:11:08;73.30;;;28.25;;
40659;SDS011;26753;45.544;9.232;2022-12-18T07:13:34;70.78;;;29.30;;
40659;SDS011;26753;45.544;9.232;2022-12-18T07:16:08;73.50;;;29.40;;
40659;SDS011;26753;45.544;9.232;2022-12-18T07:18:38;70.28;;;28.13;;
40659;SDS011;26753;45.544;9.232;2022-12-18T07:21:09;72.32;;;29.45;;
40659;SDS011;26753;45.544;9.232;2022-12-18T07:23:37;74.60;;;29.52;;
40659;SDS011;26753;45.544;9.232;2022-12-18T07:26:05;78.05;;;29.38;;
40659;SDS011;26753;45.544;9.232;2022-12-18T07:28:32;78.53;;;30.88;;
40659;SDS011;26753;45.544;9.232;2022-12-18T07:31:17;77.97;;;31.13;;
40659;SDS011;26753;45.544;9.232;2022-12-18T07:33:52;82.95;;;30.60;;
40659;SDS011;26753;45.544;9.232;2022-12-18T07:36:19;92.65;;;34.85;;
40659;SDS011;26753;45.544;9.232;2022-12-18T07:38:57;85.53;;;33.00;;
40659;SDS011;26753;45.544;9.232;2022-12-18T07:41:36;84.75;;;31.67;;
40659;SDS011;26753;45.544;9.232;2022-12-18T07:44:03;88.50;;;30.95;;
40659;SDS011;26753;45.544;9.232;2022-12-18T07:46:32;82.20;;;31.70;;
40659;SDS011;26753;45.544;9.232;2022-12-18T07:49:01;84.13;;;31.00;;
40659;SDS011;26753;45.544;9.232;2022-12-18T07:51:27;87.43;;;30.95;;
40659;SDS011;26753;45.544;9.232;2022-12-18T07:54:04;85.63;;;32.70;;
40659;SDS011;26753;45.544;9.232;2022-12-18T07:59:23;78.13;;;30.58;;
40659;SDS011;26753;45.544;9.232;2022-12-18T08:01:55;84.75;;;30.67;;
40659;SDS011;26753;45.544;9.232;2022-12-18T08:04:27;74.72;;;29.80;;
40659;SDS011;26753;45.544;9.232;2022-12-18T08:06:53;78.15;;;32.03;;
40659;SDS011;26753;45.544;9.232;2022-12-18T08:16:20;77.80;;;31.15;;
40659;SDS011;26753;45.544;9.232;2022-12-18T08:21:44;73.78;;;29.95;;
40659;SDS011;26753;45.544;9.232;2022-12-18T08:24:19;75.35;;;29.90;;
40659;SDS011;26753;45.544;9.232;2022-12-18T08:26:44;71.90;;;30.73;;
40659;SDS011;26753;45.544;9.232;2022-12-18T08:29:16;71.57;;;29.30;;
40659;SDS011;26753;45.544;9.232;2022-12-18T08:32:11;74.05;;;29.98;;
40659;SDS011;26753;45.544;9.232;2022-12-18T08:38:06;64.75;;;27.13;;
40659;SDS011;26753;45.544;9.232;2022-12-18T08:43:48;58.67;;;26.38;;
40659;SDS011;26753;45.544;9.232;2022-12-18T08:46:39;53.78;;;24.70;;
40659;SDS011;26753;45.544;9.232;2022-12-18T08:53:22;52.13;;;24.65;;
40659;SDS011;26753;45.544;9.232;2022-12-18T08:58:18;52.05;;;24.70;;
40659;SDS011;26753;45.544;9.232;2022-12-18T09:00:44;52.55;;;25.60;;
40659;SDS011;26753;45.544;9.232;2022-12-18T09:10:08;49.83;;;23.73;;
40659;SDS011;26753;45.544;9.232;2022-12-18T09:13:06;46.20;;;24.10;;
40659;SDS011;26753;45.544;9.232;2022-12-18T09:15:52;48.08;;;24.40;;
40659;SDS011;26753;45.544;9.232;2022-12-18T09:18:34;48.72;;;24.70;;
40659;SDS011;26753;45.544;9.232;2022-12-18T09:24:46;49.53;;;24.48;;
40659;SDS011;26753;45.544;9.232;2022-12-18T09:27:38;53.17;;;25.42;;
40659;SDS011;26753;45.544;9.232;2022-12-18T09:43:45;43.60;;;23.33;;
40659;SDS011;26753;45.544;9.232;2022-12-18T09:46:19;42.10;;;22.77;;
40659;SDS011;26753;45.544;9.232;2022-12-18T09:49:32;42.85;;;23.02;;
40659;SDS011;26753;45.544;9.232;2022-12-18T09:52:16;47.20;;;23.55;;
40659;SDS011;26753;45.544;9.232;2022-12-18T09:54:44;41.72;;;23.42;;
40659;SDS011;26753;45.544;9.232;2022-12-18T09:57:24;43.15;;;23.02;;
40659;SDS011;26753;45.544;9.232;2022-12-18T10:00:06;42.78;;;23.13;;
40659;SDS011;26753;45.544;9.232;2022-12-18T10:02:44;49.40;;;21.58;;
40659;SDS011;26753;45.544;9.232;2022-12-18T10:05:12;42.47;;;22.35;;
40659;SDS011;26753;45.544;9.232;2022-12-18T10:07:49;42.10;;;21.80;;
40659;SDS011;26753;45.544;9.232;2022-12-18T10:20:56;43.30;;;23.08;;
40659;SDS011;26753;45.544;9.232;2022-12-18T10:26:46;44.78;;;23.13;;
40659;SDS011;26753;45.544;9.232;2022-12-18T10:29:14;44.83;;;23.92;;
40659;SDS011;26753;45.544;9.232;2022-12-18T10:31:41;46.88;;;22.45;;
40659;SDS011;26753;45.544;9.232;2022-12-18T10:34:10;40.58;;;22.42;;
40659;SDS011;26753;45.544;9.232;2022-12-18T10:39:22;35.70;;;19.70;;
40659;SDS011;26753;45.544;9.232;2022-12-18T10:41:50;38.53;;;22.63;;
40659;SDS011;26753;45.544;9.232;2022-12-18T10:44:20;37.30;;;20.27;;
40659;SDS011;26753;45.544;9.232;2022-12-18T10:46:53;37.97;;;19.85;;
40659;SDS011;26753;45.544;9.232;2022-12-18T10:49:49;37.22;;;22.58;;
40659;SDS011;26753;45.544;9.232;2022-12-18T10:52:24;40.60;;;23.25;;
40659;SDS011;26753;45.544;9.232;2022-12-18T10:54:53;37.08;;;22.40;;
40659;SDS011;26753;45.544;9.232;2022-12-18T11:01:13;36.70;;;20.80;;
40659;SDS011;26753;45.544;9.232;2022-12-18T11:07:06;35.55;;;21.58;;
40659;SDS011;26753;45.544;9.232;2022-12-18T11:09:38;36.58;;;21.63;;
40659;SDS011;26753;45.544;9.232;2022-12-18T11:15:26;36.67;;;22.40;;
40659;SDS011;26753;45.544;9.232;2022-12-18T11:17:58;36.83;;;22.45;;
40659;SDS011;26753;45.544;9.232;2022-12-18T11:20:36;41.45;;;21.92;;
40659;SDS011;26753;45.544;9.232;2022-12-18T11:23:10;39.03;;;22.45;;
40659;SDS011;26753;45.544;9.232;2022-12-18T11:33:43;42.22;;;23.15;;
40659;SDS011;26753;45.544;9.232;2022-12-18T11:36:17;43.03;;;24.15;;
40659;SDS011;26753;45.544;9.232;2022-12-18T11:38:45;39.65;;;23.42;;
40659;SDS011;26753;45.544;9.232;2022-12-18T11:41:27;43.78;;;24.58;;
40659;SDS011;26753;45.544;9.232;2022-12-18T11:44:25;40.08;;;22.45;;
40659;SDS011;26753;45.544;9.232;2022-12-18T11:47:09;38.35;;;22.30;;
40659;SDS011;26753;45.544;9.232;2022-12-18T11:49:47;38.45;;;22.95;;
40659;SDS011;26753;45.544;9.232;2022-12-18T11:55:14;38.20;;;22.35;;
40659;SDS011;26753;45.544;9.232;2022-12-18T12:00:23;36.58;;;22.42;;
40659;SDS011;26753;45.544;9.232;2022-12-18T12:05:51;34.53;;;20.58;;
40659;SDS011;26753;45.544;9.232;2022-12-18T12:11:34;35.83;;;21.98;;
40659;SDS011;26753;45.544;9.232;2022-12-18T12:14:21;36.58;;;22.05;;
40659;SDS011;26753;45.544;9.232;2022-12-18T12:34:39;34.38;;;21.10;;
40659;SDS011;26753;45.544;9.232;2022-12-18T12:40:37;30.73;;;20.52;;
40659;SDS011;26753;45.544;9.232;2022-12-18T12:43:18;32.80;;;20.30;;
40659;SDS011;26753;45.544;9.232;2022-12-18T12:45:51;30.48;;;20.55;;
40659;SDS011;26753;45.544;9.232;2022-12-18T12:48:55;29.35;;;19.17;;
40659;SDS011;26753;45.544;9.232;2022-12-18T12:51:25;28.67;;;18.90;;
40659;SDS011;26753;45.544;9.232;2022-12-18T12:53:58;31.90;;;20.77;;
40659;SDS011;26753;45.544;9.232;2022-12-18T12:56:29;29.38;;;19.02;;
40659;SDS011;26753;45.544;9.232;2022-12-18T13:02:26;27.60;;;18.60;;
40659;SDS011;26753;45.544;9.232;2022-12-18T13:13:10;26.80;;;19.25;;
40659;SDS011;26753;45.544;9.232;2022-12-18T13:25:54;28.77;;;20.15;;
40659;SDS011;26753;45.544;9.232;2022-12-18T13:31:13;31.05;;;20.83;;
40659;SDS011;26753;45.544;9.232;2022-12-18T13:33:43;32.17;;;21.98;;
40659;SDS011;26753;45.544;9.232;2022-12-18T13:41:49;29.52;;;20.55;;
40659;SDS011;26753;45.544;9.232;2022-12-18T13:44:58;30.05;;;20.50;;
40659;SDS011;26753;45.544;9.232;2022-12-18T13:47:25;28.35;;;20.48;;
40659;SDS011;26753;45.544;9.232;2022-12-18T13:49:58;29.25;;;20.73;;
40659;SDS011;26753;45.544;9.232;2022-12-18T13:52:28;31.55;;;20.40;;
40659;SDS011;26753;45.544;9.232;2022-12-18T13:54:58;30.98;;;20.15;;
40659;SDS011;26753;45.544;9.232;2022-12-18T13:57:27;28.95;;;20.30;;
40659;SDS011;26753;45.544;9.232;2022-12-18T13:59:59;30.27;;;20.90;;
40659;SDS011;26753;45.544;9.232;2022-12-18T14:02:50;30.98;;;21.33;;
40659;SDS011;26753;45.544;9.232;2022-12-18T14:05:36;29.88;;;21.30;;
40659;SDS011;26753;45.544;9.232;2022-12-18T14:08:06;30.30;;;21.40;;
40659;SDS011;26753;45.544;9.232;2022-12-18T14:10:44;31.95;;;21.35;;
40659;SDS011;26753;45.544;9.232;2022-12-18T14:13:15;31.55;;;21.13;;
40659;SDS011;26753;45.544;9.232;2022-12-18T14:16:03;31.23;;;21.55;;
40659;SDS011;26753;45.544;9.232;2022-12-18T14:18:51;34.58;;;22.60;;
40659;SDS011;26753;45.544;9.232;2022-12-18T14:21:27;34.55;;;23.17;;
40659;SDS011;26753;45.544;9.232;2022-12-18T14:24:04;29.42;;;21.83;;
40659;SDS011;26753;45.544;9.232;2022-12-18T14:26:48;30.83;;;21.77;;
40659;SDS011;26753;45.544;9.232;2022-12-18T14:29:29;32.88;;;22.92;;
40659;SDS011;26753;45.544;9.232;2022-12-18T14:34:51;33.67;;;22.35;;
40659;SDS011;26753;45.544;9.232;2022-12-18T14:37:51;31.52;;;21.65;;
40659;SDS011;26753;45.544;9.232;2022-12-18T14:43:15;32.67;;;21.40;;
40659;SDS011;26753;45.544;9.232;2022-12-18T14:45:50;31.70;;;21.65;;
40659;SDS011;26753;45.544;9.232;2022-12-18T14:48:18;32.75;;;21.00;;
40659;SDS011;26753;45.544;9.232;2022-12-18T14:50:54;29.27;;;20.80;;
40659;SDS011;26753;45.544;9.232;2022-12-18T14:53:36;30.67;;;20.55;;
40659;SDS011;26753;45.544;9.232;2022-12-18T14:56:13;29.00;;;19.85;;
40659;SDS011;26753;45.544;9.232;2022-12-18T14:59:15;30.00;;;20.63;;
40659;SDS011;26753;45.544;9.232;2022-12-18T15:08:41;29.80;;;20.88;;
40659;SDS011;26753;45.544;9.232;2022-12-18T15:17:24;27.92;;;19.80;;
40659;SDS011;26753;45.544;9.232;2022-12-18T15:23:58;31.67;;;22.20;;
40659;SDS011;26753;45.544;9.232;2022-12-18T15:26:32;31.80;;;21.25;;
40659;SDS011;26753;45.544;9.232;2022-12-18T15:29:03;33.38;;;22.45;;
40659;SDS011;26753;45.544;9.232;2022-12-18T15:31:46;34.25;;;22.52;;
40659;SDS011;26753;45.544;9.232;2022-12-18T15:34:37;33.42;;;23.10;;
40659;SDS011;26753;45.544;9.232;2022-12-18T15:37:28;34.85;;;22.60;;
40659;SDS011;26753;45.544;9.232;2022-12-18T15:39:57;36.10;;;24.38;;
40659;SDS011;26753;45.544;9.232;2022-12-18T15:42:23;36.92;;;24.00;;
40659;SDS011;26753;45.544;9.232;2022-12-18T15:45:30;38.03;;;23.52;;
40659;SDS011;26753;45.544;9.232;2022-12-18T15:47:59;36.95;;;23.63;;
40659;SDS011;26753;45.544;9.232;2022-12-18T15:50:41;37.50;;;23.92;;
40659;SDS011;26753;45.544;9.232;2022-12-18T15:53:19;41.17;;;25.60;;
40659;SDS011;26753;45.544;9.232;2022-12-18T15:58:45;41.67;;;25.80;;
40659;SDS011;26753;45.544;9.232;2022-12-18T16:01:55;41.38;;;26.23;;
40659;SDS011;26753;45.544;9.232;2022-12-18T16:05:08;41.35;;;25.77;;
40659;SDS011;26753;45.544;9.232;2022-12-18T16:08:29;41.17;;;26.27;;
40659;SDS011;26753;45.544;9.232;2022-12-18T16:10:56;40.72;;;25.38;;
40659;SDS011;26753;45.544;9.232;2022-12-18T16:13:30;43.20;;;26.52;;
40659;SDS011;26753;45.544;9.232;2022-12-18T16:15:56;43.53;;;26.63;;
40659;SDS011;26753;45.544;9.232;2022-12-18T16:18:31;43.50;;;26.15;;
40659;SDS011;26753;45.544;9.232;2022-12-18T16:21:05;48.60;;;29.80;;
40659;SDS011;26753;45.544;9.232;2022-12-18T16:23:47;43.20;;;25.77;;
40659;SDS011;26753;45.544;9.232;2022-12-18T16:26:19;43.22;;;26.65;;
40659;SDS011;26753;45.544;9.232;2022-12-18T16:28:48;48.53;;;28.50;;
40659;SDS011;26753;45.544;9.232;2022-12-18T16:31:17;49.35;;;27.70;;
40659;SDS011;26753;45.544;9.232;2022-12-18T16:33:43;45.00;;;26.63;;
40659;SDS011;26753;45.544;9.232;2022-12-18T16:36:21;45.22;;;27.23;;
40659;SDS011;26753;45.544;9.232;2022-12-18T16:38:47;45.08;;;26.35;;
40659;SDS011;26753;45.544;9.232;2022-12-18T16:41:17;44.70;;;26.65;;
40659;SDS011;26753;45.544;9.232;2022-12-18T16:43:56;43.92;;;26.83;;
40659;SDS011;26753;45.544;9.232;2022-12-18T16:46:22;45.08;;;26.90;;
40659;SDS011;26753;45.544;9.232;2022-12-18T16:48:48;50.17;;;29.08;;
40659;SDS011;26753;45.544;9.232;2022-12-18T16:51:17;47.40;;;27.35;;
40659;SDS011;26753;45.544;9.232;2022-12-18T16:53:43;52.63;;;28.08;;
40659;SDS011;26753;45.544;9.232;2022-12-18T16:56:09;44.67;;;27.67;;
40659;SDS011;26753;45.544;9.232;2022-12-18T16:58:35;46.20;;;26.65;;
40659;SDS011;26753;45.544;9.232;2022-12-18T17:01:06;46.47;;;26.63;;
40659;SDS011;26753;45.544;9.232;2022-12-18T17:03:35;45.63;;;27.70;;
40659;SDS011;26753;45.544;9.232;2022-12-18T17:06:03;46.50;;;28.58;;
40659;SDS011;26753;45.544;9.232;2022-12-18T17:08:29;47.35;;;27.58;;
40659;SDS011;26753;45.544;9.232;2022-12-18T17:10:55;49.80;;;28.15;;
40659;SDS011;26753;45.544;9.232;2022-12-18T17:13:21;47.90;;;27.35;;
40659;SDS011;26753;45.544;9.232;2022-12-18T17:15:47;46.75;;;27.55;;
40659;SDS011;26753;45.544;9.232;2022-12-18T17:18:16;49.67;;;28.42;;
40659;SDS011;26753;45.544;9.232;2022-12-18T17:20:42;47.75;;;28.30;;
40659;SDS011;26753;45.544;9.232;2022-12-18T17:23:07;56.90;;;29.83;;
40659;SDS011;26753;45.544;9.232;2022-12-18T17:25:33;49.45;;;28.83;;
40659;SDS011;26753;45.544;9.232;2022-12-18T17:27:59;51.13;;;28.38;;
40659;SDS011;26753;45.544;9.232;2022-12-18T17:30:25;53.45;;;30.88;;
40659;SDS011;26753;45.544;9.232;2022-12-18T17:32:51;52.60;;;29.02;;
40659;SDS011;26753;45.544;9.232;2022-12-18T17:35:17;51.53;;;28.80;;
40659;SDS011;26753;45.544;9.232;2022-12-18T17:37:43;55.10;;;30.42;;
40659;SDS011;26753;45.544;9.232;2022-12-18T17:40:09;52.45;;;29.50;;
40659;SDS011;26753;45.544;9.232;2022-12-18T17:42:35;54.05;;;29.17;;
40659;SDS011;26753;45.544;9.232;2022-12-18T17:45:01;55.90;;;30.63;;
40659;SDS011;26753;45.544;9.232;2022-12-18T17:47:28;53.25;;;28.98;;
40659;SDS011;26753;45.544;9.232;2022-12-18T17:49:57;56.58;;;30.65;;
40659;SDS011;26753;45.544;9.232;2022-12-18T17:52:26;53.30;;;29.35;;
40659;SDS011;26753;45.544;9.232;2022-12-18T17:54:52;55.17;;;29.80;;
40659;SDS011;26753;45.544;9.232;2022-12-18T17:57:20;61.72;;;31.48;;
40659;SDS011;26753;45.544;9.232;2022-12-18T17:59:47;60.08;;;32.33;;
40659;SDS011;26753;45.544;9.232;2022-12-18T18:02:16;58.63;;;31.35;;
40659;SDS011;26753;45.544;9.232;2022-12-18T18:04:42;60.88;;;32.00;;
40659;SDS011;26753;45.544;9.232;2022-12-18T18:07:08;57.28;;;30.30;;
40659;SDS011;26753;45.544;9.232;2022-12-18T18:09:34;61.13;;;30.58;;
40659;SDS011;26753;45.544;9.232;2022-12-18T18:12:00;60.67;;;31.52;;
40659;SDS011;26753;45.544;9.232;2022-12-18T18:14:45;57.70;;;31.20;;
40659;SDS011;26753;45.544;9.232;2022-12-18T18:17:11;57.88;;;30.92;;
40659;SDS011;26753;45.544;9.232;2022-12-18T18:19:37;60.90;;;32.03;;
40659;SDS011;26753;45.544;9.232;2022-12-18T18:22:06;61.40;;;31.23;;
40659;SDS011;26753;45.544;9.232;2022-12-18T18:24:32;62.08;;;32.03;;
40659;SDS011;26753;45.544;9.232;2022-12-18T18:26:58;64.18;;;32.75;;
40659;SDS011;26753;45.544;9.232;2022-12-18T18:29:27;63.63;;;32.72;;
40659;SDS011;26753;45.544;9.232;2022-12-18T18:31:56;70.90;;;33.80;;
40659;SDS011;26753;45.544;9.232;2022-12-18T18:34:24;65.72;;;33.67;;
40659;SDS011;26753;45.544;9.232;2022-12-18T18:36:50;76.85;;;32.63;;
40659;SDS011;26753;45.544;9.232;2022-12-18T18:39:17;73.95;;;31.88;;
40659;SDS011;26753;45.544;9.232;2022-12-18T18:41:43;61.85;;;32.35;;
40659;SDS011;26753;45.544;9.232;2022-12-18T18:44:09;62.35;;;31.75;;
40659;SDS011;26753;45.544;9.232;2022-12-18T18:46:35;63.75;;;32.28;;
40659;SDS011;26753;45.544;9.232;2022-12-18T18:49:01;63.00;;;32.78;;
40659;SDS011;26753;45.544;9.232;2022-12-18T18:51:28;62.60;;;32.08;;
40659;SDS011;26753;45.544;9.232;2022-12-18T18:53:54;63.20;;;32.53;;
40659;SDS011;26753;45.544;9.232;2022-12-18T18:56:21;65.63;;;32.42;;
40659;SDS011;26753;45.544;9.232;2022-12-18T18:58:48;65.38;;;32.80;;
40659;SDS011;26753;45.544;9.232;2022-12-18T19:01:20;65.10;;;32.70;;
40659;SDS011;26753;45.544;9.232;2022-12-18T19:03:55;73.03;;;33.63;;
40659;SDS011;26753;45.544;9.232;2022-12-18T19:06:24;69.32;;;33.40;;
40659;SDS011;26753;45.544;9.232;2022-12-18T19:08:51;72.65;;;33.75;;
40659;SDS011;26753;45.544;9.232;2022-12-18T19:11:18;68.70;;;33.63;;
40659;SDS011;26753;45.544;9.232;2022-12-18T19:14:05;71.00;;;34.22;;
40659;SDS011;26753;45.544;9.232;2022-12-18T19:16:32;72.88;;;34.58;;
40659;SDS011;26753;45.544;9.232;2022-12-18T19:18:58;74.25;;;33.83;;
40659;SDS011;26753;45.544;9.232;2022-12-18T19:21:25;75.85;;;32.95;;
40659;SDS011;26753;45.544;9.232;2022-12-18T19:23:51;84.65;;;33.50;;
40659;SDS011;26753;45.544;9.232;2022-12-18T19:26:18;74.13;;;34.40;;
40659;SDS011;26753;45.544;9.232;2022-12-18T19:28:58;82.88;;;34.83;;
40659;SDS011;26753;45.544;9.232;2022-12-18T19:31:25;71.95;;;34.03;;
40659;SDS011;26753;45.544;9.232;2022-12-18T19:33:50;80.85;;;35.72;;
40659;SDS011;26753;45.544;9.232;2022-12-18T19:36:18;88.07;;;36.33;;
40659;SDS011;26753;45.544;9.232;2022-12-18T19:38:48;83.15;;;35.40;;
40659;SDS011;26753;45.544;9.232;2022-12-18T19:41:24;81.97;;;34.92;;
40659;SDS011;26753;45.544;9.232;2022-12-18T19:43:56;86.47;;;35.42;;
40659;SDS011;26753;45.544;9.232;2022-12-18T19:46:25;80.57;;;34.88;;
40659;SDS011;26753;45.544;9.232;2022-12-18T19:48:51;79.50;;;33.92;;
40659;SDS011;26753;45.544;9.232;2022-12-18T19:51:21;76.80;;;33.30;;
40659;SDS011;26753;45.544;9.232;2022-12-18T19:53:49;82.70;;;35.20;;
40659;SDS011;26753;45.544;9.232;2022-12-18T19:56:17;78.05;;;34.30;;
40659;SDS011;26753;45.544;9.232;2022-12-18T19:58:44;95.00;;;40.75;;
40659;SDS011;26753;45.544;9.232;2022-12-18T20:01:11;92.32;;;36.83;;
40659;SDS011;26753;45.544;9.232;2022-12-18T20:03:37;79.78;;;36.17;;
40659;SDS011;26753;45.544;9.232;2022-12-18T20:06:11;85.63;;;35.83;;
40659;SDS011;26753;45.544;9.232;2022-12-18T20:08:37;90.53;;;36.53;;
40659;SDS011;26753;45.544;9.232;2022-12-18T20:11:04;87.80;;;37.95;;
40659;SDS011;26753;45.544;9.232;2022-12-18T20:13:39;86.70;;;37.42;;
40659;SDS011;26753;45.544;9.232;2022-12-18T20:16:08;83.00;;;36.33;;
40659;SDS011;26753;45.544;9.232;2022-12-18T20:18:36;83.47;;;34.95;;
40659;SDS011;26753;45.544;9.232;2022-12-18T20:21:02;79.70;;;33.85;;
40659;SDS011;26753;45.544;9.232;2022-12-18T20:23:29;79.53;;;34.78;;
40659;SDS011;26753;45.544;9.232;2022-12-18T20:25:55;84.63;;;35.13;;
40659;SDS011;26753;45.544;9.232;2022-12-18T20:28:24;111.38;;;47.25;;
40659;SDS011;26753;45.544;9.232;2022-12-18T20:30:50;112.15;;;49.88;;
40659;SDS011;26753;45.544;9.232;2022-12-18T20:33:20;91.80;;;40.70;;
40659;SDS011;26753;45.544;9.232;2022-12-18T20:35:46;83.22;;;35.03;;
40659;SDS011;26753;45.544;9.232;2022-12-18T20:38:12;80.90;;;35.25;;
40659;SDS011;26753;45.544;9.232;2022-12-18T20:40:41;85.55;;;35.30;;
40659;SDS011;26753;45.544;9.232;2022-12-18T20:43:07;82.30;;;34.83;;
40659;SDS011;26753;45.544;9.232;2022-12-18T20:45:36;83.40;;;36.83;;
40659;SDS011;26753;45.544;9.232;2022-12-18T20:48:02;82.45;;;36.25;;
40659;SDS011;26753;45.544;9.232;2022-12-18T20:50:29;82.50;;;37.03;;
40659;SDS011;26753;45.544;9.232;2022-12-18T20:52:57;81.90;;;35.17;;
40659;SDS011;26753;45.544;9.232;2022-12-18T20:55:32;72.15;;;33.42;;
40659;SDS011;26753;45.544;9.232;2022-12-18T20:57:58;75.20;;;33.50;;
40659;SDS011;26753;45.544;9.232;2022-12-18T21:00:27;75.15;;;33.13;;
40659;SDS011;26753;45.544;9.232;2022-12-18T21:02:55;72.85;;;32.30;;
40659;SDS011;26753;45.544;9.232;2022-12-18T21:05:30;76.68;;;33.90;;
40659;SDS011;26753;45.544;9.232;2022-12-18T21:07:59;87.15;;;39.75;;
40659;SDS011;26753;45.544;9.232;2022-12-18T21:10:25;87.15;;;36.55;;
40659;SDS011;26753;45.544;9.232;2022-12-18T21:13:12;77.32;;;33.83;;
40659;SDS011;26753;45.544;9.232;2022-12-18T21:15:37;79.05;;;33.05;;
40659;SDS011;26753;45.544;9.232;2022-12-18T21:18:04;77.65;;;34.47;;
40659;SDS011;26753;45.544;9.232;2022-12-18T21:20:30;77.57;;;34.03;;
40659;SDS011;26753;45.544;9.232;2022-12-18T21:22:59;77.50;;;34.03;;
40659;SDS011;26753;45.544;9.232;2022-12-18T21:25:31;78.85;;;33.55;;
40659;SDS011;26753;45.544;9.232;2022-12-18T21:30:55;72.22;;;31.52;;
40659;SDS011;26753;45.544;9.232;2022-12-18T21:33:22;74.88;;;33.35;;
40659;SDS011;26753;45.544;9.232;2022-12-18T21:35:56;96.90;;;42.97;;
40659;SDS011;26753;45.544;9.232;2022-12-18T21:38:27;102.03;;;46.42;;